Time;durP1;ratioP1;P1;durP2;ratioP2;P2;SDS_P1;SDS_P2;PMS_P1;PMS_P2;Temp;Humidity;BMP_temperature;BMP_pressure;BME280_temperature;BME280_humidity;BME280_pressure;Samples;Min_cycle;Max_cycle;Signal;HPM_P1;HPM_P2
2022/04/23 00:00:41;;;;;;;9.20;4.68;;;11.30;99.90;;;;;;4938983;29;20047;-86
2022/04/23 00:03:07;;;;;;;7.38;4.05;;;11.30;99.90;;;;;;4936349;29;20459;-86
2022/04/23 00:05:33;;;;;;;7.10;3.50;;;11.30;99.90;;;;;;4941256;29;20035;-87
2022/04/23 00:07:58;;;;;;;6.80;3.78;;;11.30;99.90;;;;;;4958954;29;20082;-86
2022/04/23 00:10:24;;;;;;;7.80;3.42;;;11.20;99.90;;;;;;4952455;28;20031;-85
2022/04/23 00:12:50;;;;;;;7.35;3.55;;;11.20;99.90;;;;;;4955469;29;20031;-85
2022/04/23 00:15:15;;;;;;;8.15;3.53;;;11.10;99.90;;;;;;4953492;29;20106;-86
2022/04/23 00:17:43;;;;;;;6.82;3.58;;;11.10;99.90;;;;;;4954037;29;20102;-86
2022/04/23 00:20:11;;;;;;;6.93;3.72;;;11.10;99.90;;;;;;4931299;29;20054;-86
2022/04/23 00:22:37;;;;;;;7.13;3.50;;;11.00;99.90;;;;;;4969031;28;20049;-86
2022/04/23 00:25:03;;;;;;;6.65;3.45;;;11.00;99.90;;;;;;4945670;29;20498;-85
2022/04/23 00:27:29;;;;;;;6.20;3.42;;;10.90;99.90;;;;;;4936569;28;20422;-86
2022/04/23 00:29:55;;;;;;;8.13;3.72;;;10.90;99.90;;;;;;4922060;29;20027;-87
2022/04/23 00:32:20;;;;;;;6.45;3.17;;;10.90;99.90;;;;;;4922282;29;20390;-87
2022/04/23 00:34:46;;;;;;;8.32;3.88;;;10.80;99.90;;;;;;4956823;28;20026;-86
2022/04/23 00:37:11;;;;;;;7.30;3.70;;;10.80;99.90;;;;;;4949416;29;20500;-86
2022/04/23 00:39:37;;;;;;;6.88;3.38;;;10.90;99.90;;;;;;4921601;29;20090;-87
2022/04/23 00:42:08;;;;;;;9.00;3.58;;;10.80;99.90;;;;;;4920798;28;20622;-86
2022/04/23 00:44:34;;;;;;;6.38;3.00;;;10.80;99.90;;;;;;4929924;29;20027;-86
2022/04/23 00:47:00;;;;;;;8.48;3.15;;;10.70;99.90;;;;;;4947353;29;20055;-86
2022/04/23 00:49:26;;;;;;;7.20;3.90;;;10.70;99.90;;;;;;4940747;29;20027;-86
2022/04/23 00:51:52;;;;;;;7.00;3.80;;;10.60;99.90;;;;;;4936042;28;20047;-86
2022/04/23 00:54:19;;;;;;;6.85;3.80;;;10.60;99.90;;;;;;4938834;29;20041;-86
2022/04/23 00:56:45;;;;;;;7.35;3.55;;;10.60;99.90;;;;;;4951282;28;20038;-86
2022/04/23 00:59:13;;;;;;;7.63;3.78;;;10.60;99.90;;;;;;4927045;29;20387;-86
2022/04/23 01:01:40;;;;;;;7.75;3.42;;;10.60;99.90;;;;;;4945687;28;20029;-86
2022/04/23 01:04:07;;;;;;;6.82;3.45;;;10.70;99.90;;;;;;4950535;28;20401;-86
2022/04/23 01:06:34;;;;;;;7.47;3.90;;;10.50;99.90;;;;;;4939618;29;20031;-87
2022/04/23 01:09:05;;;;;;;6.10;3.20;;;10.40;99.90;;;;;;4957604;29;20094;-86
2022/04/23 01:11:32;;;;;;;8.48;3.58;;;10.40;99.90;;;;;;4940242;29;20027;-86
2022/04/23 01:13:58;;;;;;;5.60;3.20;;;10.30;99.90;;;;;;4957687;29;20027;-87
2022/04/23 01:16:24;;;;;;;6.45;3.33;;;10.30;99.90;;;;;;4939257;29;20027;-86
2022/04/23 01:18:49;;;;;;;8.02;3.75;;;10.30;99.90;;;;;;4931941;29;20090;-86
2022/04/23 01:21:15;;;;;;;7.00;3.65;;;10.30;99.90;;;;;;4938816;29;20032;-86
2022/04/23 01:23:42;;;;;;;7.20;3.70;;;10.20;99.90;;;;;;4942431;29;20040;-86
2022/04/23 01:26:10;;;;;;;7.05;3.88;;;10.20;99.90;;;;;;4950202;29;20027;-86
2022/04/23 01:28:37;;;;;;;6.30;3.67;;;10.20;99.90;;;;;;4941951;29;20027;-87
2022/04/23 01:31:04;;;;;;;8.30;3.80;;;10.20;99.90;;;;;;4938951;29;20509;-86
2022/04/23 01:33:32;;;;;;;8.02;4.10;;;10.10;99.90;;;;;;4920264;29;20032;-86
2022/04/23 01:35:58;;;;;;;7.45;3.78;;;10.10;99.90;;;;;;4936451;29;20032;-86
2022/04/23 01:38:23;;;;;;;6.13;3.60;;;10.20;99.90;;;;;;4936204;29;20075;-87
2022/04/23 01:40:49;;;;;;;6.93;3.70;;;10.00;99.90;;;;;;4938826;29;20015;-86
2022/04/23 01:43:15;;;;;;;8.95;4.32;;;10.00;99.90;;;;;;4938759;29;20435;-87
2022/04/23 01:45:40;;;;;;;8.07;4.47;;;9.90;99.90;;;;;;4938235;29;20031;-86
2022/04/23 01:48:06;;;;;;;7.72;3.88;;;10.00;99.90;;;;;;4938401;29;20070;-87
2022/04/23 01:50:32;;;;;;;7.78;4.60;;;9.90;99.90;;;;;;4939550;29;20041;-87
2022/04/23 01:52:58;;;;;;;7.68;3.92;;;9.80;99.90;;;;;;4957490;29;20031;-87
2022/04/23 01:55:24;;;;;;;7.43;4.40;;;9.80;99.90;;;;;;4941986;28;20409;-86
2022/04/23 01:57:49;;;;;;;8.88;4.18;;;9.80;99.90;;;;;;4944351;29;20011;-85
2022/04/23 02:00:15;;;;;;;8.73;4.30;;;9.70;99.90;;;;;;4941177;29;20023;-86
2022/04/23 02:02:42;;;;;;;8.10;4.22;;;9.70;99.90;;;;;;4939713;29;20039;-86
2022/04/23 02:05:08;;;;;;;8.02;4.18;;;9.70;99.90;;;;;;4934132;29;20091;-87
2022/04/23 02:07:38;;;;;;;8.35;3.90;;;9.70;99.90;;;;;;4935683;29;20031;-87
2022/04/23 02:10:15;;;;;;;6.85;3.63;;;9.70;99.90;;;;;;4918669;29;20032;-87
2022/04/23 02:12:42;;;;;;;8.52;4.20;;;9.60;99.90;;;;;;4933815;29;20083;-87
2022/04/23 02:15:09;;;;;;;7.53;4.30;;;9.60;99.90;;;;;;4934264;29;20045;-87
2022/04/23 02:17:42;;;;;;;10.10;4.68;;;9.60;99.90;;;;;;4935731;29;20083;-86
2022/04/23 02:20:10;;;;;;;7.53;4.13;;;9.50;99.90;;;;;;4945101;28;20668;-86
2022/04/23 02:22:36;;;;;;;7.93;4.32;;;9.50;99.90;;;;;;4939963;29;20032;-86
2022/04/23 02:25:05;;;;;;;10.05;5.18;;;9.40;99.90;;;;;;4937935;29;20389;-86
2022/04/23 02:27:41;;;;;;;8.43;4.53;;;9.30;99.90;;;;;;4953646;28;20023;-86
2022/04/23 02:30:07;;;;;;;7.50;4.65;;;9.30;99.90;;;;;;4927992;29;20035;-86
2022/04/23 02:32:33;;;;;;;8.57;4.93;;;9.30;99.90;;;;;;4917239;29;20034;-86
2022/04/23 02:34:58;;;;;;;9.98;4.57;;;9.30;99.90;;;;;;4934077;28;20027;-86
2022/04/23 02:37:31;;;;;;;8.52;4.57;;;9.30;99.90;;;;;;4916687;29;20019;-87
2022/04/23 02:39:56;;;;;;;9.48;4.95;;;9.30;99.90;;;;;;4920406;29;20034;-86
2022/04/23 02:42:22;;;;;;;9.00;4.65;;;9.20;99.90;;;;;;4938226;28;20049;-86
2022/04/23 02:44:50;;;;;;;8.63;5.07;;;9.20;99.90;;;;;;4919498;29;20028;-86
2022/04/23 02:47:16;;;;;;;8.15;4.47;;;9.10;99.90;;;;;;4934881;29;20126;-86
2022/04/23 02:49:42;;;;;;;9.88;5.13;;;9.20;99.90;;;;;;4955934;29;20114;-87
2022/04/23 02:52:08;;;;;;;9.77;5.00;;;9.20;99.90;;;;;;4942827;29;20051;-87
2022/04/23 02:54:33;;;;;;;7.88;4.72;;;9.20;99.90;;;;;;4941498;28;20482;-86
2022/04/23 09:01:31;;;;;;;7.93;3.38;;;11.60;99.90;;;;;;4969524;28;20063;-87
2022/04/23 09:04:11;;;;;;;6.40;3.63;;;11.60;99.90;;;;;;4958434;29;20019;-86
2022/04/23 09:06:46;;;;;;;7.30;3.10;;;11.50;99.90;;;;;;4975825;29;20039;-86
2022/04/23 09:09:22;;;;;;;7.93;3.85;;;11.60;99.90;;;;;;4956679;29;20037;-87
2022/04/23 09:11:55;;;;;;;6.05;2.85;;;11.60;99.90;;;;;;4975791;29;20104;-86
2022/04/23 09:14:29;;;;;;;7.00;3.28;;;11.90;99.90;;;;;;4957102;29;20070;-87
2022/04/23 09:25:47;;;;;;;5.97;3.15;;;12.40;99.90;;;;;;4950216;28;20505;-86
2022/04/23 09:28:30;;;;;;;6.78;2.70;;;12.50;99.90;;;;;;4952523;29;20035;-87
2022/04/23 09:30:56;;;;;;;6.35;3.10;;;12.50;99.90;;;;;;4936578;28;20034;-88
2022/04/23 09:33:52;;;;;;;6.32;2.83;;;12.50;99.90;;;;;;4944504;29;20494;-88
2022/04/23 09:36:22;;;;;;;5.82;3.00;;;12.60;99.90;;;;;;4933295;29;20035;-87
2022/04/23 09:39:01;;;;;;;5.47;2.83;;;12.70;99.90;;;;;;4936660;29;20071;-87
2022/04/23 09:41:33;;;;;;;6.50;3.00;;;12.80;99.90;;;;;;4935515;29;20034;-87
2022/04/23 09:44:10;;;;;;;5.78;3.17;;;13.00;99.90;;;;;;4940545;28;20505;-87
2022/04/23 09:46:48;;;;;;;5.18;2.63;;;12.70;99.90;;;;;;4928214;29;20032;-87
2022/04/23 09:49:23;;;;;;;7.22;3.63;;;12.80;99.90;;;;;;4928101;29;20542;-87
2022/04/23 09:52:09;;;;;;;5.45;2.80;;;12.90;99.90;;;;;;4954629;29;20381;-87
2022/04/23 09:54:36;;;;;;;6.72;2.72;;;13.00;99.90;;;;;;4933223;29;20028;-87
2022/04/23 09:57:02;;;;;;;6.10;2.80;;;13.30;99.90;;;;;;4956516;28;20110;-88
2022/04/23 09:59:28;;;;;;;6.95;3.05;;;13.30;99.90;;;;;;4955966;28;20058;-87
2022/04/23 10:01:58;;;;;;;7.55;2.72;;;13.50;99.90;;;;;;4945623;29;20058;-88
2022/04/23 10:04:29;;;;;;;6.00;2.53;;;13.70;99.90;;;;;;4933436;29;20020;-87
2022/04/23 10:06:56;;;;;;;4.25;2.00;;;13.60;99.90;;;;;;4918010;29;20036;-88
2022/04/23 10:09:27;;;;;;;5.55;2.40;;;13.80;99.90;;;;;;4934690;28;20038;-88
2022/04/23 10:12:02;;;;;;;5.90;2.35;;;13.60;99.90;;;;;;4937538;28;20043;-87
2022/04/23 10:14:34;;;;;;;5.40;2.55;;;13.70;99.90;;;;;;4928953;29;20036;-87
2022/04/23 10:17:02;;;;;;;;;;;13.60;99.90;;;;;;4936950;29;20513;-87
2022/04/23 10:19:29;;;;;;;5.57;2.33;;;13.40;99.90;;;;;;4934027;29;20009;-87
2022/04/23 10:22:09;;;;;;;4.80;2.25;;;13.50;99.90;;;;;;4922779;29;20164;-87
2022/04/23 10:25:01;;;;;;;5.78;2.85;;;13.40;99.90;;;;;;4947208;29;20106;-87
2022/04/23 10:27:28;;;;;;;5.90;2.35;;;13.50;99.90;;;;;;4943313;29;20024;-86
2022/04/23 10:30:03;;;;;;;4.78;2.45;;;13.70;99.90;;;;;;4952761;28;20027;-88
2022/04/23 10:32:43;;;;;;;5.90;2.78;;;13.80;99.90;;;;;;4933961;29;20454;-88
2022/04/23 10:35:17;;;;;;;5.60;2.88;;;13.80;99.90;;;;;;4932820;29;20050;-87
2022/04/23 10:37:44;;;;;;;6.47;3.00;;;14.00;99.90;;;;;;4916962;29;20027;-88
2022/04/23 10:40:16;;;;;;;6.45;3.30;;;14.10;99.90;;;;;;4917253;29;20039;-88
2022/04/23 10:43:03;;;;;;;6.20;2.53;;;14.00;99.90;;;;;;4917500;29;20169;-89
2022/04/23 10:45:37;;;;;;;9.38;2.83;;;14.30;99.90;;;;;;4923714;29;20129;-88
2022/04/23 10:48:24;;;;;;;7.15;3.40;;;14.40;99.90;;;;;;4920319;29;20122;-88
2022/04/23 10:51:02;;;;;;;6.97;3.05;;;14.40;99.90;;;;;;4934044;29;20829;-88
2022/04/23 10:53:37;;;;;;;5.78;2.60;;;14.50;99.90;;;;;;4933963;29;20398;-88
2022/04/23 10:56:10;;;;;;;8.10;3.47;;;14.40;99.90;;;;;;4933096;29;20130;-88
2022/04/23 10:58:38;;;;;;;6.00;2.78;;;14.50;99.90;;;;;;4917014;29;20519;-87
2022/04/23 11:01:23;;;;;;;7.32;3.08;;;14.40;99.90;;;;;;4934659;29;20122;-88
2022/04/23 11:03:55;;;;;;;7.40;3.28;;;14.50;99.90;;;;;;4934427;29;20388;-88
2022/04/23 11:12:28;;;;;;;7.57;3.25;;;14.50;99.90;;;;;;4953965;29;20034;-87
2022/04/23 11:14:57;;;;;;;6.53;2.75;;;14.30;99.90;;;;;;4935783;29;20042;-88
2022/04/23 11:17:31;;;;;;;6.13;3.28;;;14.30;99.90;;;;;;4953220;29;20019;-88
2022/04/23 11:19:57;;;;;;;6.90;3.25;;;14.20;99.90;;;;;;4927641;29;20024;-87
2022/04/23 11:22:23;;;;;;;8.10;3.50;;;14.40;99.90;;;;;;4930585;29;20422;-87
2022/04/23 11:24:50;;;;;;;5.22;2.35;;;14.50;99.90;;;;;;4917832;29;20034;-87
2022/04/23 11:27:29;;;;;;;6.25;2.95;;;14.30;99.90;;;;;;4934654;29;20055;-88
2022/04/23 11:29:56;;;;;;;5.47;2.42;;;14.40;99.90;;;;;;4936164;29;20031;-88
2022/04/23 11:32:34;;;;;;;5.97;3.17;;;14.40;99.90;;;;;;4936543;29;20027;-88
2022/04/23 11:35:03;;;;;;;5.43;2.60;;;14.30;99.90;;;;;;4954078;29;20074;-87
2022/04/23 11:37:30;;;;;;;5.75;2.97;;;14.30;99.90;;;;;;4935133;29;20466;-87
2022/04/23 11:40:10;;;;;;;7.10;3.00;;;14.40;99.90;;;;;;4936785;29;20069;-88
2022/04/23 11:42:43;;;;;;;4.90;2.65;;;14.70;99.90;;;;;;4938027;29;20027;-88
2022/04/23 11:45:14;;;;;;;5.80;2.80;;;14.80;99.90;;;;;;4954588;28;20031;-88
2022/04/23 11:47:39;;;;;;;5.03;2.70;;;14.90;99.90;;;;;;4935730;29;20031;-88
2022/04/23 11:50:12;;;;;;;5.30;2.75;;;14.90;99.90;;;;;;4957744;29;20489;-88
2022/04/23 11:52:39;;;;;;;5.68;2.90;;;15.00;99.90;;;;;;4941401;29;20023;-88
2022/04/23 11:55:18;;;;;;;5.07;2.53;;;14.90;99.90;;;;;;4959516;29;20119;-88
2022/04/23 11:58:21;;;;;;;5.40;2.53;;;15.20;99.90;;;;;;4957718;28;20030;-88
2022/04/23 12:00:47;;;;;;;5.32;2.33;;;14.90;99.90;;;;;;4925200;29;20036;-88
2022/04/23 12:03:13;;;;;;;5.43;2.53;;;14.80;99.90;;;;;;4947252;29;20513;-87
2022/04/23 12:05:39;;;;;;;7.35;2.88;;;14.90;99.90;;;;;;4956326;28;20091;-87
2022/04/23 12:08:06;;;;;;;5.85;2.90;;;14.90;99.90;;;;;;4937735;29;20039;-88
2022/04/23 12:10:32;;;;;;;5.40;2.35;;;14.90;99.90;;;;;;4936603;29;20032;-88
2022/04/23 12:13:07;;;;;;;4.93;2.65;;;15.10;99.90;;;;;;4937770;29;20047;-88
2022/04/23 12:15:33;;;;;;;5.65;2.67;;;15.60;99.90;;;;;;4957413;28;20031;-87
2022/04/23 12:17:59;;;;;;;4.80;2.65;;;15.90;99.90;;;;;;4978859;28;20054;-88
2022/04/23 12:20:27;;;;;;;5.72;2.45;;;15.80;99.90;;;;;;4962847;28;20032;-88
2022/04/23 12:23:05;;;;;;;4.47;2.65;;;16.00;99.90;;;;;;4951467;29;20024;-87
2022/04/23 12:25:33;;;;;;;5.45;2.58;;;16.20;99.40;;;;;;4921888;29;20098;-88
2022/04/23 12:42:20;;;;;;;;;;;16.20;99.00;;;;;;4937423;29;20392;-88
2022/04/23 12:44:46;;;;;;;;;;;16.20;99.40;;;;;;4920690;29;19925;-89
2022/04/23 12:47:16;;;;;;;4.28;2.33;;;16.00;99.50;;;;;;4933598;29;20054;-90
2022/04/23 12:49:52;;;;;;;5.22;2.50;;;15.90;99.30;;;;;;4922264;29;20510;-90
2022/04/23 12:52:22;;;;;;;3.70;1.95;;;15.70;99.70;;;;;;4939284;29;20028;-89
2022/04/23 12:55:13;;;;;;;5.15;2.17;;;15.60;99.80;;;;;;4919924;29;20051;-89
2022/04/23 12:57:43;;;;;;;4.30;2.05;;;15.60;99.90;;;;;;4918921;29;20050;-89
2022/04/23 13:00:11;;;;;;;4.28;2.17;;;15.40;99.90;;;;;;4936285;29;20055;-89
2022/04/23 13:02:38;;;;;;;5.05;2.65;;;15.50;99.90;;;;;;4936377;29;20020;-89
2022/04/23 13:05:12;;;;;;;4.65;2.15;;;15.50;99.90;;;;;;4921947;29;20026;-89
2022/04/23 13:10:25;;;;;;;7.80;2.92;;;15.20;99.90;;;;;;4956833;29;20046;-89
2022/04/23 13:12:51;;;;;;;4.05;2.15;;;15.20;99.90;;;;;;4941924;29;20039;-89
2022/04/23 13:15:16;;;;;;;5.38;2.47;;;15.10;99.90;;;;;;4942852;29;20038;-90
2022/04/23 13:17:43;;;;;;;4.32;2.42;;;15.10;99.90;;;;;;4940838;29;20028;-88
2022/04/23 13:20:10;;;;;;;7.93;2.58;;;15.10;99.90;;;;;;4927533;29;20097;-89
2022/04/23 13:22:36;;;;;;;4.35;2.30;;;15.20;99.90;;;;;;4936598;29;20062;-90
2022/04/23 13:25:04;;;;;;;4.90;2.15;;;15.20;99.90;;;;;;4953587;28;20111;-89
2022/04/23 13:27:30;;;;;;;6.05;2.75;;;15.20;99.90;;;;;;4937340;29;20114;-90
2022/04/23 13:29:56;;;;;;;5.28;2.60;;;15.10;99.90;;;;;;4947386;29;20055;-90
2022/04/23 13:32:22;;;;;;;4.32;2.50;;;15.20;99.90;;;;;;4929179;29;20093;-90
2022/04/23 13:34:48;;;;;;;4.43;1.88;;;15.30;99.90;;;;;;4937777;29;20031;-90
2022/04/23 13:37:13;;;;;;;6.22;2.33;;;15.50;99.90;;;;;;4937138;29;20059;-90
2022/04/23 13:39:42;;;;;;;4.60;2.38;;;15.70;99.90;;;;;;4937132;29;20057;-90
2022/04/23 13:42:08;;;;;;;5.53;2.65;;;15.80;99.90;;;;;;4936964;29;20110;-89
2022/04/23 13:44:38;;;;;;;6.25;2.92;;;15.90;99.90;;;;;;4937296;29;20118;-90
2022/04/23 13:47:04;;;;;;;4.90;2.75;;;15.70;99.90;;;;;;4933538;29;20030;-90
2022/04/23 13:49:29;;;;;;;7.28;2.55;;;15.80;99.90;;;;;;4954211;29;20031;-90
2022/04/23 13:52:00;;;;;;;6.78;2.60;;;15.80;99.90;;;;;;4954097;29;20031;-90
2022/04/23 13:54:26;;;;;;;5.03;2.55;;;15.90;99.90;;;;;;4937461;29;20027;-89
2022/04/23 13:56:52;;;;;;;5.38;2.45;;;16.10;99.80;;;;;;4936329;29;20034;-90
2022/04/23 13:59:17;;;;;;;5.75;2.78;;;16.10;99.90;;;;;;4936639;29;20034;-90
2022/04/23 14:10:04;;;;;;;5.45;2.88;;;16.20;99.90;;;;;;4959351;29;20035;-90
2022/04/23 14:10:07;;;;;;;6.15;2.58;;;16.40;99.10;;;;;;4934189;29;20038;-90
2022/04/23 14:12:33;;;;;;;5.20;2.50;;;16.30;99.10;;;;;;4934627;29;20023;-89
2022/04/23 14:14:59;;;;;;;4.30;2.80;;;16.10;99.60;;;;;;4952977;28;20035;-90
2022/04/23 14:17:27;;;;;;;4.65;2.47;;;16.00;99.60;;;;;;4936247;29;20031;-90
2022/04/23 14:19:53;;;;;;;4.72;2.47;;;15.80;99.80;;;;;;4936836;29;20027;-90
2022/04/23 14:22:19;;;;;;;4.60;2.50;;;15.60;99.90;;;;;;4935998;29;20019;-90
2022/04/23 14:24:47;;;;;;;5.38;2.75;;;15.50;99.90;;;;;;4936274;29;20194;-90
2022/04/23 14:27:13;;;;;;;5.25;2.58;;;15.50;99.90;;;;;;4934083;29;20110;-90
2022/04/23 14:29:38;;;;;;;5.25;2.92;;;15.50;99.90;;;;;;4936760;29;20086;-89
2022/04/23 14:32:05;;;;;;;4.72;2.63;;;15.30;99.90;;;;;;4947255;29;20122;-90
2022/04/23 14:34:30;;;;;;;10.15;2.58;;;15.30;99.90;;;;;;4933799;29;20431;-89
2022/04/23 14:36:56;;;;;;;5.53;2.80;;;15.20;99.90;;;;;;4935755;29;20028;-90
2022/04/23 14:39:24;;;;;;;5.18;2.72;;;15.20;99.90;;;;;;4933466;29;20031;-90
2022/04/23 14:41:53;;;;;;;6.53;3.47;;;15.30;99.90;;;;;;4942878;29;20038;-90
2022/04/23 14:44:21;;;;;;;4.40;2.53;;;15.30;99.90;;;;;;4937464;29;20450;-89
2022/04/23 14:46:48;;;;;;;4.45;2.55;;;15.40;99.90;;;;;;4949221;28;20946;-89
2022/04/23 14:49:14;;;;;;;4.35;2.38;;;15.40;99.90;;;;;;4918073;29;20024;-90
2022/04/23 14:54:27;;;;;;;5.10;2.90;;;15.40;99.90;;;;;;4936860;28;20074;-89
2022/04/23 14:56:53;;;;;;;5.40;3.15;;;15.40;99.90;;;;;;4953982;29;20034;-89
2022/04/23 14:59:19;;;;;;;4.85;2.92;;;15.40;99.90;;;;;;4953994;29;20073;-90
2022/04/23 15:01:46;;;;;;;5.43;2.60;;;15.40;99.90;;;;;;4955184;29;20027;-89
2022/04/23 15:04:12;;;;;;;6.35;2.88;;;15.20;99.90;;;;;;4954134;29;20023;-89
2022/04/23 15:06:38;;;;;;;4.47;3.17;;;15.30;99.90;;;;;;4953918;29;20162;-87
2022/04/23 15:09:05;;;;;;;5.30;2.70;;;15.30;99.90;;;;;;4935795;29;20421;-88
2022/04/23 15:11:31;;;;;;;5.85;3.08;;;15.40;99.90;;;;;;4953495;29;20031;-88
2022/04/23 15:13:57;;;;;;;5.50;3.05;;;15.40;99.90;;;;;;4946196;29;20103;-87
2022/04/23 15:16:23;;;;;;;5.97;3.15;;;15.30;99.90;;;;;;4936014;29;20184;-88
2022/04/23 15:18:49;;;;;;;7.00;3.40;;;15.40;99.90;;;;;;4938354;29;20038;-88
2022/04/23 15:21:15;;;;;;;7.38;3.28;;;15.20;99.90;;;;;;4937367;29;20024;-88
2022/04/23 15:23:40;;;;;;;5.90;2.70;;;15.40;99.90;;;;;;4956540;28;20045;-86
2022/04/23 15:26:06;;;;;;;5.47;3.28;;;15.40;99.90;;;;;;4956272;29;20438;-88
2022/04/23 15:28:33;;;;;;;7.50;3.47;;;15.40;99.90;;;;;;4956423;29;20145;-88
2022/04/23 15:30:59;;;;;;;6.45;3.17;;;15.50;99.90;;;;;;4949724;29;20020;-88
2022/04/23 15:33:25;;;;;;;7.07;3.40;;;15.50;99.90;;;;;;4920275;29;20802;-87
2022/04/23 15:35:51;;;;;;;6.40;3.50;;;15.40;99.90;;;;;;4937085;29;20036;-88
2022/04/23 15:38:17;;;;;;;4.97;2.92;;;15.50;99.90;;;;;;4919600;29;20079;-88
2022/04/23 15:40:46;;;;;;;7.20;3.78;;;15.40;99.90;;;;;;4937088;28;20383;-88
2022/04/23 15:43:11;;;;;;;6.40;3.30;;;15.50;99.90;;;;;;4919554;29;20031;-87
2022/04/23 15:45:37;;;;;;;6.70;3.67;;;15.50;99.90;;;;;;4937003;29;20115;-88
2022/04/23 15:48:03;;;;;;;8.57;4.00;;;15.50;99.90;;;;;;4944688;28;20110;-88
2022/04/23 15:50:29;;;;;;;5.82;3.53;;;15.50;99.90;;;;;;4946559;28;20043;-86
2022/04/23 15:52:54;;;;;;;6.53;3.55;;;15.50;99.90;;;;;;4944563;29;20031;-87
2022/04/23 15:55:20;;;;;;;8.02;4.20;;;15.60;99.90;;;;;;4936699;29;20361;-87
2022/04/23 15:57:46;;;;;;;6.40;3.80;;;15.70;99.90;;;;;;4932253;29;20032;-87
2022/04/23 16:00:13;;;;;;;6.35;3.47;;;15.70;99.90;;;;;;4929388;29;20030;-87
2022/04/23 16:02:38;;;;;;;9.60;3.60;;;15.80;99.90;;;;;;4953369;29;20054;-86
2022/04/23 16:05:05;;;;;;;5.40;3.17;;;15.80;99.90;;;;;;4952802;29;20027;-86
2022/04/23 16:07:31;;;;;;;6.53;3.45;;;15.80;99.90;;;;;;4952831;29;20102;-87
2022/04/23 16:09:56;;;;;;;8.43;4.03;;;15.80;99.90;;;;;;4936200;29;20031;-86
2022/04/23 16:12:22;;;;;;;8.38;4.25;;;15.80;99.90;;;;;;4949882;28;20042;-86
2022/04/23 16:14:50;;;;;;;8.10;3.75;;;15.60;99.90;;;;;;4947436;28;20029;-87
2022/04/23 16:17:15;;;;;;;7.72;3.85;;;15.60;99.90;;;;;;4936006;29;20110;-86
2022/04/23 16:19:41;;;;;;;6.63;3.50;;;15.50;99.90;;;;;;4928647;29;20110;-86
2022/04/23 16:22:07;;;;;;;8.40;4.20;;;15.40;99.90;;;;;;4955331;28;20030;-86
2022/04/23 16:24:35;;;;;;;7.50;3.67;;;15.40;99.90;;;;;;4933328;29;20502;-87
2022/04/23 16:27:02;;;;;;;7.60;4.20;;;15.40;99.90;;;;;;4948010;29;20032;-86
2022/04/23 16:29:38;;;;;;;9.40;4.20;;;15.40;99.90;;;;;;4930025;29;20445;-86
2022/04/23 16:32:05;;;;;;;8.00;3.97;;;15.30;99.90;;;;;;4938855;29;20032;-87
2022/04/23 16:34:36;;;;;;;7.85;3.60;;;15.30;99.90;;;;;;4945845;28;20517;-86
2022/04/23 16:48:00;;;;;;;8.75;4.30;;;15.10;99.90;;;;;;4944969;28;20042;-85
2022/04/23 16:50:26;;;;;;;8.57;4.38;;;15.00;99.90;;;;;;4957709;28;20031;-86
2022/04/23 16:55:30;;;;;;;7.40;3.88;;;15.00;99.90;;;;;;4912245;27;20075;-88
2022/04/23 16:58:02;;;;;;;7.75;3.85;;;14.90;99.90;;;;;;4949638;29;20051;-89
2022/04/23 17:00:34;;;;;;;8.65;4.40;;;15.00;99.90;;;;;;4973407;28;20027;-89
2022/04/23 17:02:59;;;;;;;7.65;3.88;;;14.90;99.90;;;;;;4972216;28;20091;-89
2022/04/23 17:05:28;;;;;;;6.80;4.20;;;14.90;99.90;;;;;;4953910;29;20038;-88
2022/04/23 17:07:54;;;;;;;7.20;4.05;;;14.80;99.90;;;;;;4964269;29;20027;-89
2022/04/23 17:10:23;;;;;;;8.90;4.15;;;14.70;99.90;;;;;;4959188;29;20046;-89
2022/04/23 17:12:51;;;;;;;8.10;4.15;;;14.70;99.90;;;;;;4957069;29;20032;-88
2022/04/23 17:15:19;;;;;;;9.68;4.35;;;14.60;99.90;;;;;;4944814;29;20063;-89
2022/04/23 17:17:47;;;;;;;8.27;4.40;;;14.60;99.90;;;;;;4952440;29;20059;-89
2022/04/23 17:20:16;;;;;;;8.52;4.55;;;14.50;99.90;;;;;;4942412;29;20042;-89
2022/04/23 17:22:42;;;;;;;9.63;4.70;;;14.40;99.90;;;;;;4930999;29;20540;-88
2022/04/23 17:25:14;;;;;;;10.18;4.70;;;14.50;99.90;;;;;;4945193;29;20131;-89
2022/04/23 17:27:39;;;;;;;8.25;5.00;;;14.50;99.90;;;;;;4939984;29;20023;-89
2022/04/23 17:30:06;;;;;;;8.57;4.72;;;14.50;99.90;;;;;;4934448;29;20027;-88
2022/04/23 17:32:33;;;;;;;9.73;4.53;;;14.50;99.90;;;;;;4934863;29;20539;-89
2022/04/23 17:34:59;;;;;;;8.48;4.78;;;14.50;99.90;;;;;;4931784;29;20032;-89
2022/04/23 17:37:25;;;;;;;8.68;4.50;;;14.60;99.90;;;;;;4938494;29;20034;-88
2022/04/23 17:39:54;;;;;;;9.55;4.57;;;14.50;99.90;;;;;;4954224;29;20393;-89
2022/04/23 17:42:27;;;;;;;8.45;4.43;;;14.50;99.90;;;;;;4933794;29;20031;-90
2022/04/23 17:44:53;;;;;;;9.18;4.10;;;14.50;99.90;;;;;;4925268;29;20027;-89
2022/04/23 17:47:21;;;;;;;8.43;4.18;;;14.40;99.90;;;;;;4939683;29;20038;-89
2022/04/23 17:49:50;;;;;;;7.85;4.68;;;14.40;99.90;;;;;;4934574;29;20033;-90
2022/04/23 17:52:20;;;;;;;7.68;4.15;;;14.40;99.90;;;;;;4933764;29;20042;-89
2022/04/23 17:54:45;;;;;;;7.97;4.65;;;14.20;99.90;;;;;;4941515;29;20450;-89
2022/04/23 17:57:11;;;;;;;7.25;4.00;;;14.20;99.90;;;;;;4958999;29;20425;-89
2022/04/23 18:07:23;;;;;;;8.57;4.57;;;14.30;99.90;;;;;;4960015;29;20023;-89
2022/04/23 18:08:03;;;;;;;12.45;5.13;;;14.00;99.90;;;;;;4954252;28;20054;-89
2022/04/23 18:13:13;;;;;;;9.00;4.22;;;13.90;99.90;;;;;;4937352;29;20538;-89
2022/04/23 18:15:40;;;;;;;9.38;4.82;;;13.80;99.90;;;;;;4931296;29;20047;-88
2022/04/23 18:18:06;;;;;;;10.75;4.60;;;13.70;99.90;;;;;;4941628;29;20019;-89
2022/04/23 18:20:35;;;;;;;9.00;4.75;;;13.70;99.90;;;;;;4946168;29;20087;-89
2022/04/23 18:23:01;;;;;;;8.13;4.35;;;13.80;99.90;;;;;;4930099;29;20020;-89
2022/04/23 18:25:36;;;;;;;8.13;4.40;;;13.70;99.90;;;;;;4941220;29;20031;-89
2022/04/23 18:28:02;;;;;;;8.73;4.47;;;13.70;99.90;;;;;;4936490;29;20035;-89
2022/04/23 18:30:28;;;;;;;9.45;4.30;;;13.70;99.90;;;;;;4949027;29;20027;-89
2022/04/23 18:32:56;;;;;;;9.38;4.40;;;13.60;99.90;;;;;;4934632;29;20309;-89
2022/04/23 18:35:21;;;;;;;8.07;4.68;;;13.60;99.90;;;;;;4949101;29;20046;-89
2022/04/23 18:37:47;;;;;;;8.77;4.82;;;13.50;99.90;;;;;;4937568;29;20035;-89
2022/04/23 18:40:15;;;;;;;9.20;4.50;;;13.50;99.90;;;;;;4921906;29;20042;-89
2022/04/23 18:42:41;;;;;;;8.45;4.25;;;13.60;99.90;;;;;;4934873;29;20625;-88
2022/04/23 18:45:09;;;;;;;8.68;4.43;;;13.50;99.90;;;;;;4946197;29;20062;-89
2022/04/23 18:47:36;;;;;;;8.57;4.68;;;13.40;99.90;;;;;;4956231;29;20035;-89
2022/04/23 18:50:05;;;;;;;9.88;4.97;;;13.40;99.90;;;;;;4929779;29;20047;-89
2022/04/23 18:52:34;;;;;;;10.07;4.90;;;13.40;99.90;;;;;;4950210;29;20035;-89
2022/04/23 18:54:59;;;;;;;10.48;4.65;;;13.30;99.90;;;;;;4945486;28;20035;-89
2022/04/23 18:57:25;;;;;;;8.70;4.50;;;13.30;99.90;;;;;;4955528;28;20061;-89
2022/04/23 18:59:50;;;;;;;7.45;4.05;;;13.20;99.90;;;;;;4949612;29;20027;-89
2022/04/23 19:02:20;;;;;;;8.20;4.40;;;13.20;99.90;;;;;;4928952;29;20190;-89
2022/04/23 19:04:46;;;;;;;7.97;4.45;;;13.10;99.90;;;;;;4929305;29;20063;-89
2022/04/23 19:07:13;;;;;;;8.60;4.20;;;13.00;99.90;;;;;;4941676;29;20051;-89
2022/04/23 19:09:39;;;;;;;10.52;4.63;;;12.90;99.90;;;;;;4949111;29;20020;-89
2022/04/23 19:12:05;;;;;;;8.90;4.55;;;12.90;99.90;;;;;;4934794;29;20042;-89
2022/04/23 19:14:30;;;;;;;7.28;4.30;;;12.80;99.90;;;;;;4914450;29;20028;-89
2022/04/23 19:16:56;;;;;;;7.75;4.32;;;12.80;99.90;;;;;;4935612;29;20090;-89
2022/04/23 19:19:23;;;;;;;8.65;4.53;;;12.80;99.90;;;;;;4935593;29;20490;-88
2022/04/23 19:27:32;;;;;;;9.57;3.90;;;12.70;99.90;;;;;;4947729;29;20457;-88
2022/04/23 19:30:00;;;;;;;7.38;4.18;;;12.70;99.90;;;;;;4949132;29;20461;-89
2022/04/23 19:32:26;;;;;;;7.63;3.85;;;12.70;99.90;;;;;;4922055;29;20047;-88
2022/04/23 19:34:52;;;;;;;7.90;4.30;;;12.70;99.90;;;;;;4924145;29;20398;-89
2022/04/23 19:37:21;;;;;;;7.93;3.75;;;12.70;99.90;;;;;;4929243;29;20086;-89
2022/04/23 19:39:48;;;;;;;7.90;4.20;;;12.70;99.90;;;;;;4924160;29;20024;-89
2022/04/23 19:42:15;;;;;;;9.68;4.13;;;12.60;99.90;;;;;;4926019;29;20020;-89
2022/04/23 19:44:42;;;;;;;7.15;3.72;;;12.60;99.90;;;;;;4925368;29;20419;-89
2022/04/23 19:47:11;;;;;;;6.82;3.70;;;12.50;99.90;;;;;;4933475;29;20390;-89
2022/04/23 19:49:37;;;;;;;8.02;3.72;;;12.50;99.90;;;;;;4942443;29;20038;-92
2022/04/23 19:52:24;;;;;;;8.57;3.47;;;12.40;99.90;;;;;;4938254;29;20473;-92
2022/04/23 19:54:53;;;;;;;5.35;3.08;;;12.40;99.90;;;;;;4922956;23;20120;-94
2022/04/23 19:57:24;;;;;;;7.30;3.60;;;12.40;99.90;;;;;;4875778;29;20468;-92
2022/04/23 19:59:50;;;;;;;6.53;3.45;;;12.40;99.90;;;;;;4908336;29;20080;-93
2022/04/23 20:02:35;;;;;;;7.97;3.80;;;12.40;99.90;;;;;;4901867;29;20033;-93
2022/04/23 20:05:43;;;;;;;;;;;;;;;;;;;;;
2022/04/23 20:08:10;;;;;;;6.40;3.15;;;12.40;99.90;;;;;;4917137;23;20044;-89
2022/04/23 20:10:43;;;;;;;6.60;3.35;;;12.40;99.90;;;;;;4919505;29;20020;-89